createdAt,value
2022-11-19T00:00:13.246Z,96933.97
2022-11-19T00:03:16.131Z,96927.34
2022-11-19T00:06:20.177Z,96934.75
2022-11-19T00:09:36.495Z,96940.97
2022-11-19T00:12:56.584Z,96929.19
2022-11-19T00:16:07.549Z,96954.47
2022-11-19T00:19:12.900Z,96955.41
2022-11-19T00:22:29.770Z,96967.38
2022-11-19T00:25:31.547Z,96962.53
2022-11-19T00:28:34.055Z,96978.53
2022-11-19T00:31:35.750Z,96985.31
2022-11-19T00:34:37.620Z,96993.28
2022-11-19T00:37:39.897Z,97010.63
2022-11-19T00:40:42.427Z,97017.72
2022-11-19T00:43:47.164Z,97024.19
2022-11-19T00:46:49.095Z,97030.09
2022-11-19T00:49:50.864Z,97037.50
2022-11-19T00:52:52.615Z,97028.25
2022-11-19T00:55:54.827Z,97033.81
2022-11-19T00:58:56.779Z,97051.09
2022-11-19T01:01:58.569Z,97052.88
2022-11-19T01:05:00.325Z,97051.09
2022-11-19T01:08:02.080Z,97071.94
2022-11-19T01:11:12.394Z,97077.72
2022-11-19T01:14:14.287Z,97068.63
2022-11-19T01:17:16.023Z,97064.00
2022-11-19T01:20:17.825Z,97064.44
2022-11-19T01:23:19.945Z,97064.03
2022-11-19T01:26:22.002Z,97073.47
2022-11-19T01:29:23.826Z,97069.63
2022-11-19T01:32:25.690Z,97067.38
2022-11-19T01:35:27.420Z,97077.91
2022-11-19T01:38:29.761Z,97092.97
2022-11-19T01:41:32.504Z,97089.38
2022-11-19T01:45:03.490Z,97091.94
2022-11-19T01:48:14.580Z,97094.41
2022-11-19T01:51:20.264Z,97091.84
2022-11-19T01:54:26.643Z,97097.19
2022-11-19T01:57:28.467Z,97099.97
2022-11-19T02:00:30.331Z,97094.41
2022-11-19T02:03:34.349Z,97092.16
2022-11-19T02:06:36.137Z,97092.56
2022-11-19T02:09:38.317Z,97096.69
2022-11-19T02:13:08.751Z,97108.25
2022-11-19T02:16:32.029Z,97108.34
2022-11-19T02:20:07.881Z,97096.69
2022-11-19T02:23:44.832Z,97080.41
2022-11-19T02:26:59.880Z,97094.63
2022-11-19T02:30:22.946Z,97104.94
2022-11-19T02:33:52.481Z,97102.44
2022-11-19T02:37:14.250Z,97115.06
2022-11-19T02:40:29.470Z,97120.41
2022-11-19T02:43:36.410Z,97125.03
2022-11-19T02:46:38.506Z,97128.13
2022-11-19T02:49:44.140Z,97125.66
2022-11-19T02:52:46.580Z,97125.34
2022-11-19T02:56:08.286Z,97131.09
2022-11-19T02:59:28.625Z,97153.31
2022-11-19T03:02:53.593Z,97163.59
2022-11-19T03:06:06.269Z,97170.22
2022-11-19T03:09:08.120Z,97169.19
2022-11-19T03:12:29.584Z,97186.00
2022-11-19T03:16:01.148Z,97170.72
2022-11-19T03:19:09.033Z,97184.78
2022-11-19T03:22:35.097Z,97187.44
2022-11-19T03:25:50.961Z,97192.38
2022-11-19T03:28:53.871Z,97203.63
2022-11-19T03:32:07.809Z,97219.41
2022-11-19T03:35:14.716Z,97221.69
2022-11-19T03:38:27.098Z,97221.47
2022-11-19T03:41:29.838Z,97217.25
2022-11-19T03:44:40.148Z,97227.47
2022-11-19T03:47:42.424Z,97230.34
2022-11-19T03:51:00.260Z,97243.84
2022-11-19T03:54:02.105Z,97245.97
2022-11-19T03:57:06.052Z,97247.22
2022-11-19T04:00:09.705Z,97250.72
2022-11-19T04:03:17.165Z,97249.47
2022-11-19T04:06:19.109Z,97256.84
2022-11-19T04:09:21.343Z,97252.88
2022-11-19T04:12:25.302Z,97260.59
2022-11-19T04:15:27.371Z,97278.56
2022-11-19T04:18:29.228Z,97282.09
2022-11-19T04:21:31.262Z,97279.16
2022-11-19T04:24:33.222Z,97276.56
2022-11-19T04:27:35.008Z,97278.56
2022-11-19T04:30:36.985Z,97274.38
2022-11-19T04:33:38.794Z,97287.88
2022-11-19T04:36:42.273Z,97299.44
2022-11-19T04:39:44.033Z,97299.66
2022-11-19T04:42:45.757Z,97293.41
2022-11-19T04:45:47.540Z,97295.91
2022-11-19T04:48:49.280Z,97297.38
2022-11-19T04:51:53.651Z,97319.84
2022-11-19T04:54:55.489Z,97315.94
2022-11-19T04:57:57.676Z,97340.81
2022-11-19T05:00:59.512Z,97325.06
2022-11-19T05:04:02.756Z,97343.28
2022-11-19T05:07:04.812Z,97330.50
2022-11-19T05:10:07.188Z,97324.91
2022-11-19T05:13:08.973Z,97326.84
2022-11-19T05:16:10.939Z,97353.03
2022-11-19T05:19:12.727Z,97344.59
2022-11-19T05:22:14.944Z,97367.84
2022-11-19T05:25:17.599Z,97379.81
2022-11-19T05:28:24.818Z,97380.84
2022-11-19T05:31:34.850Z,97377.63
2022-11-19T05:34:36.730Z,97378.81
2022-11-19T05:37:38.606Z,97379.97
2022-11-19T05:40:40.425Z,97387.69
2022-11-19T05:43:42.089Z,97377.97
2022-11-19T05:46:44.264Z,97399.50
2022-11-19T05:49:46.577Z,97395.25
2022-11-19T05:52:49.237Z,97406.66
2022-11-19T05:55:51.201Z,97402.91
2022-11-19T05:58:57.106Z,97409.94
2022-11-19T06:01:59.028Z,97398.94
2022-11-19T06:05:01.141Z,97406.84
2022-11-19T06:08:03.297Z,97415.56
2022-11-19T06:11:06.045Z,97417.13
2022-11-19T06:14:08.528Z,97411.09
2022-11-19T06:17:13.316Z,97423.84
2022-11-19T06:20:20.632Z,97436.63
2022-11-19T06:23:25.184Z,97451.13
2022-11-19T06:26:30.403Z,97449.94
2022-11-19T06:29:35.029Z,97450.47
2022-11-19T06:32:52.330Z,97457.19
2022-11-19T06:35:55.650Z,97451.94
2022-11-19T06:38:57.510Z,97462.47
2022-11-19T06:42:19.269Z,97474.88
2022-11-19T06:45:21.010Z,97469.72
2022-11-19T06:48:23.025Z,97471.94
2022-11-19T06:51:24.964Z,97480.72
2022-11-19T06:54:27.627Z,97480.75
2022-11-19T06:57:30.134Z,97476.66
2022-11-19T07:00:32.664Z,97472.47
2022-11-19T07:03:35.881Z,97467.22
2022-11-19T07:06:37.689Z,97488.50
2022-11-19T07:09:41.956Z,97510.56
2022-11-19T07:12:43.825Z,97521.22
2022-11-19T07:15:45.803Z,97514.47
2022-11-19T07:18:47.846Z,97529.28
2022-11-19T07:21:49.744Z,97528.50
2022-11-19T07:24:51.643Z,97529.75
2022-11-19T07:27:53.490Z,97529.38
2022-11-19T07:30:56.262Z,97527.34
2022-11-19T07:33:58.183Z,97523.13
2022-11-19T07:37:00.262Z,97527.97
2022-11-19T07:40:03.365Z,97532.00
2022-11-19T07:43:05.138Z,97529.66
2022-11-19T07:46:09.153Z,97532.38
2022-11-19T07:49:11.659Z,97529.31
2022-11-19T07:52:13.522Z,97516.53
2022-11-19T07:55:16.091Z,97514.69
2022-11-19T07:58:18.136Z,97535.97
2022-11-19T08:01:22.513Z,97536.41
2022-11-19T08:04:24.404Z,97539.94
2022-11-19T08:07:26.681Z,97530.16
2022-11-19T08:10:31.923Z,97531.81
2022-11-19T08:13:34.811Z,97536.22
2022-11-19T08:16:55.314Z,97543.97
2022-11-19T08:19:57.220Z,97547.00
2022-11-19T08:22:59.269Z,97550.97
2022-11-19T08:26:01.191Z,97545.63
2022-11-19T08:29:03.433Z,97552.25
2022-11-19T08:32:05.681Z,97563.94
2022-11-19T08:35:08.020Z,97558.13
2022-11-19T08:38:11.257Z,97562.38
2022-11-19T08:41:31.895Z,97574.00
2022-11-19T08:44:33.971Z,97573.06
2022-11-19T08:47:35.815Z,97580.25
2022-11-19T08:50:37.906Z,97590.66
2022-11-19T08:53:40.044Z,97596.56
2022-11-19T08:56:42.376Z,97597.56
2022-11-19T08:59:44.426Z,97595.66
2022-11-19T09:02:47.750Z,97598.41
2022-11-19T09:05:49.996Z,97608.78
2022-11-19T09:08:52.083Z,97608.06
2022-11-19T09:11:56.110Z,97611.22
2022-11-19T09:14:58.854Z,97604.59
2022-11-19T09:18:00.878Z,97609.72
2022-11-19T09:21:02.957Z,97603.63
2022-11-19T09:24:05.745Z,97606.09
2022-11-19T09:27:08.119Z,97608.97
2022-11-19T09:30:14.604Z,97607.69
2022-11-19T09:33:16.815Z,97601.81
2022-11-19T09:36:19.655Z,97606.59
2022-11-19T09:39:21.453Z,97612.66
2022-11-19T09:42:37.259Z,97606.84
2022-11-19T09:45:54.622Z,97604.94
2022-11-19T09:49:01.558Z,97613.06
2022-11-19T09:52:11.257Z,97606.75
2022-11-19T09:55:20.595Z,97606.13
2022-11-19T09:58:31.472Z,97604.91
2022-11-19T10:01:34.452Z,97604.34
2022-11-19T10:04:37.135Z,97593.72
2022-11-19T10:08:02.067Z,97602.47
2022-11-19T10:11:36.164Z,97600.50
2022-11-19T10:15:03.770Z,97595.09
2022-11-19T10:18:09.491Z,97605.75
2022-11-19T10:21:33.092Z,97599.91
2022-11-19T10:24:43.284Z,97603.00
2022-11-19T10:27:55.200Z,97609.72
2022-11-19T10:31:16.845Z,97599.34
2022-11-19T10:34:23.893Z,97589.88
2022-11-19T10:37:30.834Z,97594.44
2022-11-19T10:40:42.876Z,97592.88
2022-11-19T10:43:57.691Z,97596.09
2022-11-19T10:47:00.793Z,97598.97
2022-11-19T10:50:06.960Z,97597.41
2022-11-19T10:53:36.954Z,97597.84
2022-11-19T10:56:41.316Z,97597.25
2022-11-19T10:59:44.110Z,97604.72
2022-11-19T11:02:48.716Z,97608.78
2022-11-19T11:06:03.515Z,97600.88
2022-11-19T11:09:05.770Z,97611.94
2022-11-19T11:12:30.507Z,97610.41
2022-11-19T11:15:32.504Z,97613.53
2022-11-19T11:18:35.951Z,97611.44
2022-11-19T11:21:43.098Z,97607.44
2022-11-19T11:24:45.019Z,97609.28
2022-11-19T11:27:47.480Z,97608.16
2022-11-19T11:31:20.157Z,97604.53
2022-11-19T11:34:31.624Z,97604.06
2022-11-19T11:37:33.871Z,97610.25
2022-11-19T11:40:35.768Z,97607.97
2022-11-19T11:43:40.568Z,97612.13
2022-11-19T11:47:13.095Z,97617.19
2022-11-19T11:50:18.261Z,97604.16
2022-11-19T11:53:30.122Z,97593.69
2022-11-19T11:56:32.285Z,97596.41
2022-11-19T11:59:34.246Z,97597.97
2022-11-19T12:02:38.094Z,97594.31
2022-11-19T12:05:55.466Z,97587.72
2022-11-19T12:09:06.276Z,97595.28
2022-11-19T12:12:37.641Z,97594.94
2022-11-19T12:15:48.775Z,97604.06
2022-11-19T12:19:12.611Z,97617.50
2022-11-19T12:22:23.674Z,97627.03
2022-11-19T12:25:35.268Z,97623.22
2022-11-19T12:28:52.002Z,97627.41
2022-11-19T12:32:07.648Z,97612.13
2022-11-19T12:35:34.505Z,97599.09
2022-11-19T12:38:44.942Z,97605.41
2022-11-19T12:42:21.789Z,97600.13
2022-11-19T12:45:37.273Z,97595.16
2022-11-19T12:49:11.519Z,97604.16
2022-11-19T12:52:32.306Z,97614.19
2022-11-19T12:55:46.308Z,97610.97
2022-11-19T12:58:59.239Z,97621.03
2022-11-19T13:02:04.235Z,97623.63
2022-11-19T13:05:32.286Z,97620.50
2022-11-19T13:08:43.968Z,97605.94
2022-11-19T13:11:50.663Z,97606.75
2022-11-19T13:14:57.554Z,97610.91
2022-11-19T13:18:02.540Z,97613.78
2022-11-19T13:21:08.586Z,97599.53
2022-11-19T13:24:25.923Z,97605.31
2022-11-19T13:27:29.529Z,97614.41
2022-11-19T13:30:33.738Z,97605.19
2022-11-19T13:33:43.924Z,97606.53
2022-11-19T13:36:52.018Z,97607.78
2022-11-19T13:40:00.665Z,97616.38
2022-11-19T13:43:36.995Z,97617.91
2022-11-19T13:46:45.002Z,97627.63
2022-11-19T13:50:11.467Z,97625.16
2022-11-19T13:53:36.270Z,97626.22
2022-11-19T13:56:42.043Z,97642.75
2022-11-19T13:59:47.099Z,97636.34
2022-11-19T14:03:10.039Z,97660.34
2022-11-19T14:06:34.037Z,97664.25
2022-11-19T14:10:23.564Z,97649.28
2022-11-19T14:13:43.638Z,97644.81
2022-11-19T14:17:10.878Z,97644.94
2022-11-19T14:20:50.676Z,97648.03
2022-11-19T14:24:11.097Z,97650.06
2022-11-19T14:27:23.603Z,97655.56
2022-11-19T14:31:01.612Z,97655.13
2022-11-19T14:34:04.450Z,97663.81
2022-11-19T14:37:25.399Z,97660.94
2022-11-19T14:40:28.915Z,97668.66
2022-11-19T14:43:49.460Z,97666.44
2022-11-19T14:46:51.496Z,97647.78
2022-11-19T14:49:54.555Z,97637.19
2022-11-19T14:52:58.434Z,97653.22
2022-11-19T14:56:00.810Z,97649.50
2022-11-19T14:59:15.009Z,97658.59
2022-11-19T15:02:26.608Z,97673.84
2022-11-19T15:05:36.655Z,97665.53
2022-11-19T15:08:52.158Z,97661.63
2022-11-19T15:11:57.118Z,97656.66
2022-11-19T15:15:22.480Z,97650.28
2022-11-19T15:18:24.767Z,97634.78
2022-11-19T15:21:38.868Z,97645.28
2022-11-19T15:25:09.961Z,97646.94
2022-11-19T15:28:23.102Z,97652.13
2022-11-19T15:31:34.073Z,97668.94
2022-11-19T15:35:10.767Z,97671.53
2022-11-19T15:38:18.500Z,97668.59
2022-11-19T15:41:24.474Z,97663.91
2022-11-19T15:44:45.119Z,97654.38
2022-11-19T15:47:52.978Z,97652.41
2022-11-19T15:50:55.014Z,97658.41
2022-11-19T15:54:05.929Z,97658.09
2022-11-19T15:57:16.963Z,97662.25
2022-11-19T16:00:26.225Z,97653.84
2022-11-19T16:03:31.806Z,97665.72
2022-11-19T16:06:40.653Z,97676.97
2022-11-19T16:09:43.996Z,97679.91
2022-11-19T16:13:16.387Z,97675.38
2022-11-19T16:16:46.379Z,97693.66
2022-11-19T16:20:01.193Z,97688.31
2022-11-19T16:23:06.397Z,97676.84
2022-11-19T16:26:09.142Z,97676.31
2022-11-19T16:29:22.827Z,97689.44
2022-11-19T16:32:26.579Z,97675.63
2022-11-19T16:35:33.137Z,97676.25
2022-11-19T16:38:35.172Z,97663.53
2022-11-19T16:41:55.888Z,97656.09
2022-11-19T16:45:11.821Z,97656.50
2022-11-19T16:48:49.573Z,97668.41
2022-11-19T16:51:53.431Z,97684.69
2022-11-19T16:54:55.734Z,97692.31
2022-11-19T16:58:00.262Z,97692.75
2022-11-19T17:01:03.701Z,97679.81
2022-11-19T17:04:07.998Z,97683.34
2022-11-19T17:07:14.769Z,97677.63
2022-11-19T17:10:22.843Z,97668.03
2022-11-19T17:13:31.351Z,97676.00
2022-11-19T17:16:35.359Z,97682.31
2022-11-19T17:19:37.373Z,97700.09
2022-11-19T17:22:40.203Z,97706.53
2022-11-19T17:26:09.901Z,97707.34
2022-11-19T17:29:12.223Z,97696.59
2022-11-19T17:32:14.631Z,97708.50
2022-11-19T17:35:35.614Z,97717.09
2022-11-19T17:38:38.008Z,97718.13
2022-11-19T17:41:59.611Z,97719.06
2022-11-19T17:45:06.027Z,97713.88
2022-11-19T17:48:21.518Z,97724.97
2022-11-19T17:51:25.433Z,97726.63
2022-11-19T17:54:28.758Z,97724.97
2022-11-19T17:57:31.429Z,97721.44
2022-11-19T18:00:34.162Z,97716.25
2022-11-19T18:03:36.362Z,97716.81
2022-11-19T18:06:38.436Z,97705.72
2022-11-19T18:09:41.368Z,97710.47
2022-11-19T18:12:44.145Z,97710.06
2022-11-19T18:15:46.334Z,97715.88
2022-11-19T18:18:49.389Z,97710.34
2022-11-19T18:21:52.115Z,97716.25
2022-11-19T18:24:54.488Z,97719.47
2022-11-19T18:27:57.997Z,97706.94
2022-11-19T18:31:00.163Z,97705.72
2022-11-19T18:34:02.486Z,97697.34
2022-11-19T18:37:05.101Z,97692.88
2022-11-19T18:40:07.878Z,97695.25
2022-11-19T18:43:29.322Z,97692.44
2022-11-19T18:46:31.680Z,97688.13
2022-11-19T18:49:35.926Z,97679.22
2022-11-19T18:52:38.640Z,97678.38
2022-11-19T18:55:40.872Z,97679.09
2022-11-19T18:58:43.634Z,97677.16
2022-11-19T19:01:45.820Z,97671.84
2022-11-19T19:04:50.965Z,97670.00
2022-11-19T19:07:53.529Z,97672.19
2022-11-19T19:11:16.362Z,97667.63
2022-11-19T19:14:19.101Z,97658.91
2022-11-19T19:17:22.214Z,97654.28
2022-11-19T19:20:24.742Z,97654.34
2022-11-19T19:23:27.435Z,97669.06
2022-11-19T19:26:29.626Z,97676.91
2022-11-19T19:29:32.089Z,97683.16
2022-11-19T19:32:34.401Z,97681.28
2022-11-19T19:35:38.665Z,97682.72
2022-11-19T19:38:41.196Z,97685.22
2022-11-19T19:41:43.415Z,97682.31
2022-11-19T19:44:45.867Z,97681.88
2022-11-19T19:47:47.993Z,97685.00
2022-11-19T19:50:51.599Z,97683.75
2022-11-19T19:53:54.829Z,97681.78
2022-11-19T19:56:56.982Z,97688.81
2022-11-19T20:00:00.113Z,97682.00
2022-11-19T20:03:02.251Z,97689.66
2022-11-19T20:06:06.305Z,97687.06
2022-11-19T20:09:09.131Z,97689.03
2022-11-19T20:12:11.776Z,97691.31
2022-11-19T20:15:13.894Z,97709.44
2022-11-19T20:18:16.058Z,97707.16
2022-11-19T20:21:27.163Z,97707.56
2022-11-19T20:24:29.335Z,97706.94
2022-11-19T20:27:31.569Z,97701.34
2022-11-19T20:30:33.694Z,97699.03
2022-11-19T20:33:36.560Z,97703.44
2022-11-19T20:36:39.132Z,97698.81
2022-11-19T20:39:41.245Z,97722.66
2022-11-19T20:43:01.941Z,97720.31
2022-11-19T20:46:12.060Z,97710.53
2022-11-19T20:49:17.115Z,97713.97
2022-11-19T20:52:21.579Z,97723.28
2022-11-19T20:55:24.086Z,97718.56
2022-11-19T20:58:26.252Z,97716.25
2022-11-19T21:01:31.188Z,97720.63
2022-11-19T21:04:36.679Z,97717.91
2022-11-19T21:07:38.755Z,97726.22
2022-11-19T21:10:41.290Z,97719.38
2022-11-19T21:13:44.903Z,97705.59
2022-11-19T21:16:48.311Z,97708.31
2022-11-19T21:19:50.358Z,97707.97
2022-11-19T21:22:53.162Z,97716.16
2022-11-19T21:26:04.080Z,97710.78
2022-11-19T21:29:06.137Z,97702.59
2022-11-19T21:32:08.562Z,97695.72
2022-11-19T21:35:10.519Z,97694.59
2022-11-19T21:38:12.616Z,97687.25
2022-11-19T21:41:14.587Z,97699.03
2022-11-19T21:44:21.158Z,97691.50
2022-11-19T21:47:23.779Z,97693.47
2022-11-19T21:50:25.871Z,97686.97
2022-11-19T21:53:27.840Z,97684.16
2022-11-19T21:56:33.838Z,97678.59
2022-11-19T21:59:39.493Z,97701.34
2022-11-19T22:02:41.603Z,97706.09
2022-11-19T22:05:43.541Z,97719.78
2022-11-19T22:08:45.533Z,97715.00
2022-11-19T22:11:47.575Z,97715.44
2022-11-19T22:14:49.899Z,97716.88
2022-11-19T22:17:52.546Z,97718.66
2022-11-19T22:21:04.026Z,97725.19
2022-11-19T22:24:06.842Z,97719.88
2022-11-19T22:27:08.984Z,97715.22
2022-11-19T22:30:12.940Z,97709.66
2022-11-19T22:33:14.695Z,97718.31
2022-11-19T22:36:16.672Z,97721.84
2022-11-19T22:39:19.857Z,97714.81
2022-11-19T22:42:22.657Z,97698.28
2022-11-19T22:45:25.410Z,97703.03
2022-11-19T22:48:32.101Z,97686.75
2022-11-19T22:51:34.009Z,97695.25
2022-11-19T22:54:41.200Z,97684.28
2022-11-19T22:57:43.597Z,97683.16
2022-11-19T23:00:48.058Z,97671.13
2022-11-19T23:03:50.535Z,97664.91
2022-11-19T23:06:52.435Z,97670.81
2022-11-19T23:09:54.288Z,97671.31
2022-11-19T23:13:14.688Z,97666.97
2022-11-19T23:16:20.482Z,97656.63
2022-11-19T23:19:23.188Z,97651.44
2022-11-19T23:22:25.067Z,97639.66
2022-11-19T23:25:27.261Z,97635.28
2022-11-19T23:28:30.715Z,97628.25
2022-11-19T23:31:34.917Z,97625.75
2022-11-19T23:34:36.930Z,97622.47
2022-11-19T23:37:38.753Z,97609.81
2022-11-19T23:40:40.508Z,97612.94
2022-11-19T23:43:42.941Z,97617.38
2022-11-19T23:46:44.632Z,97606.50
2022-11-19T23:49:46.466Z,97602.97
2022-11-19T23:52:48.235Z,97595.28
2022-11-19T23:55:49.996Z,97601.00
2022-11-19T23:58:52.342Z,97615.19
